Washington, District of Columbia
Current Conditions -  °F | °C
As of 10:52 PM on Tuesday 27 Jan 2015 (Local Time) from KDCA Reporting Station
Few Clouds Few Clouds  
Wind Chill: 19°   Ceiling: Unl
Heat Index: 31°   Visibility: 10mi
Dew Point: 15°   Wind: 17mph
Humidity: 52%   Direction: 330°NNW
Pressure: 29.97"   Gusts: 24mph
Location:  38.89°N, 77.03°W
Report Text: KDCA 280352Z 33015G21KT 10SM FEW120 M01/M09 A2997 RMK AO2 SLP147 T10061094
Loading
Personal Weather Stations






























Interactive Weather Map New forecast layout! Learn more

10-Day Weather Forecast

Advertisements
Track Severe Weather on mobile